Time;durP1;ratioP1;P1;durP2;ratioP2;P2;SDS_P1;SDS_P2;PMS_P1;PMS_P2;Temp;Humidity;BMP_temperature;BMP_pressure;BME280_temperature;BME280_humidity;BME280_pressure;Samples;Min_cycle;Max_cycle;Signal;HPM_P1;HPM_P2
2020/12/03 00:00:34;;;;;;;5.30;4.32;;;6.70;68.40;;;;;;5084360;28;20093;-74
2020/12/03 00:03:04;;;;;;;6.85;4.80;;;6.70;68.40;;;;;;5081334;28;20036;-77
2020/12/03 00:05:30;;;;;;;6.35;4.85;;;6.70;68.40;;;;;;5082334;28;20036;-75
2020/12/03 00:07:56;;;;;;;6.05;4.15;;;6.80;68.50;;;;;;5086815;28;20077;-78
2020/12/03 00:10:23;;;;;;;4.88;4.05;;;6.80;68.60;;;;;;5085995;28;20046;-75
2020/12/03 00:13:07;;;;;;;5.13;3.97;;;6.70;68.50;;;;;;5080766;28;20062;-76
2020/12/03 00:15:32;;;;;;;6.35;5.05;;;6.80;68.70;;;;;;5066172;28;20043;-77
2020/12/03 00:17:58;;;;;;;5.18;4.20;;;6.70;68.50;;;;;;5113769;23;20045;-74
2020/12/03 00:20:24;;;;;;;4.63;4.13;;;6.80;68.60;;;;;;5041050;28;20045;-74
2020/12/03 00:22:49;;;;;;;5.78;3.97;;;6.80;68.50;;;;;;5046391;28;20170;-74
2020/12/03 00:25:15;;;;;;;6.47;4.82;;;6.80;68.40;;;;;;5044099;28;20036;-74
2020/12/03 00:27:48;;;;;;;5.68;4.32;;;7.10;68.60;;;;;;5043859;28;20029;-74
2020/12/03 00:30:14;;;;;;;5.22;4.25;;;6.90;68.50;;;;;;5042092;28;20064;-74
2020/12/03 00:32:39;;;;;;;7.28;4.80;;;6.90;68.50;;;;;;5042225;28;20491;-74
2020/12/03 00:35:05;;;;;;;6.63;4.65;;;6.90;68.50;;;;;;5041113;28;20452;-74
2020/12/03 00:37:30;;;;;;;6.38;4.90;;;6.90;68.50;;;;;;5046534;28;20036;-74
2020/12/03 00:39:55;;;;;;;6.80;4.78;;;6.90;68.50;;;;;;5045519;28;20594;-73
2020/12/03 00:42:21;;;;;;;5.70;4.65;;;6.90;68.40;;;;;;5041667;28;20034;-74
2020/12/03 00:44:46;;;;;;;5.30;4.60;;;6.90;68.40;;;;;;5045126;28;20053;-74
2020/12/03 00:47:12;;;;;;;5.30;4.63;;;6.90;68.40;;;;;;5044096;28;20029;-74
2020/12/03 00:49:37;;;;;;;5.18;3.70;;;6.90;68.40;;;;;;5036966;28;20117;-74
2020/12/03 00:52:03;;;;;;;5.38;3.88;;;6.90;68.50;;;;;;5044857;28;20039;-74
2020/12/03 00:54:28;;;;;;;4.60;3.70;;;6.90;68.40;;;;;;5042128;28;20037;-73
2020/12/03 00:56:54;;;;;;;6.38;4.43;;;7.00;68.50;;;;;;5040497;28;20038;-73
2020/12/03 00:59:19;;;;;;;5.35;4.18;;;6.90;68.40;;;;;;5042291;28;20029;-73
2020/12/03 01:01:45;;;;;;;5.35;4.20;;;6.90;68.40;;;;;;5043412;28;20403;-73
2020/12/03 01:04:10;;;;;;;6.05;4.28;;;7.00;68.50;;;;;;5038351;28;20029;-73
2020/12/03 01:06:36;;;;;;;8.05;4.80;;;7.00;68.50;;;;;;5045176;28;20051;-74
2020/12/03 01:09:02;;;;;;;5.88;4.07;;;6.90;68.40;;;;;;5043034;28;20029;-73
2020/12/03 01:11:27;;;;;;;4.72;3.90;;;7.00;68.40;;;;;;5042086;28;20091;-73
2020/12/03 01:13:53;;;;;;;5.50;4.45;;;7.00;68.40;;;;;;5043775;28;20480;-74
2020/12/03 01:16:19;;;;;;;7.45;5.13;;;7.00;68.40;;;;;;5045331;28;20143;-74
2020/12/03 01:18:45;;;;;;;5.07;3.95;;;7.10;68.40;;;;;;5043104;28;20412;-74
2020/12/03 01:21:11;;;;;;;4.55;3.95;;;7.00;68.40;;;;;;5048536;28;20037;-74
2020/12/03 01:23:36;;;;;;;6.03;5.20;;;7.00;68.40;;;;;;5048115;28;20025;-74
2020/12/03 01:26:02;;;;;;;5.63;4.85;;;7.00;68.30;;;;;;5049941;28;20044;-74
2020/12/03 01:28:28;;;;;;;6.43;5.15;;;7.00;68.30;;;;;;5046056;28;20116;-74
2020/12/03 01:30:53;;;;;;;6.57;5.38;;;7.00;68.30;;;;;;5046412;28;20036;-74
2020/12/03 01:33:19;;;;;;;5.70;4.95;;;7.00;68.30;;;;;;5045210;28;20029;-74
2020/12/03 01:35:46;;;;;;;6.55;5.20;;;7.00;68.30;;;;;;5047875;28;20115;-74
2020/12/03 01:38:11;;;;;;;5.75;4.63;;;7.00;68.30;;;;;;5047390;28;20052;-74
2020/12/03 01:40:37;;;;;;;5.80;5.00;;;7.00;68.30;;;;;;5047190;28;20064;-74
2020/12/03 01:43:03;;;;;;;5.80;4.57;;;7.00;68.30;;;;;;5046463;28;20071;-74
2020/12/03 01:45:50;;;;;;;4.82;4.07;;;7.00;68.40;;;;;;5044664;28;20171;-73
2020/12/03 01:48:30;;;;;;;5.88;4.68;;;7.00;68.40;;;;;;5041651;28;20029;-74
2020/12/03 01:50:57;;;;;;;6.90;4.90;;;7.10;68.50;;;;;;5052583;28;20036;-74
2020/12/03 01:53:23;;;;;;;6.15;5.13;;;7.00;68.40;;;;;;5050483;28;20029;-74
2020/12/03 01:55:50;;;;;;;7.53;5.35;;;7.10;68.50;;;;;;5048509;28;20472;-73
2020/12/03 01:58:25;;;;;;;6.30;5.15;;;7.10;68.50;;;;;;5047076;28;20037;-74
2020/12/03 02:00:50;;;;;;;8.52;5.55;;;7.10;68.50;;;;;;5046821;28;20028;-74
2020/12/03 02:03:17;;;;;;;6.40;4.65;;;7.10;68.50;;;;;;5045450;28;20037;-74
2020/12/03 02:05:42;;;;;;;6.90;5.45;;;7.10;68.50;;;;;;5049067;28;20040;-74
2020/12/03 02:08:08;;;;;;;6.32;4.72;;;7.10;68.50;;;;;;5048700;28;20484;-73
2020/12/03 02:10:33;;;;;;;6.50;4.80;;;7.10;68.50;;;;;;5048572;28;20029;-73
2020/12/03 02:12:58;;;;;;;5.68;4.90;;;7.20;68.50;;;;;;5041578;28;20406;-74
2020/12/03 02:15:24;;;;;;;6.68;4.57;;;7.20;68.50;;;;;;5045980;28;20036;-73
2020/12/03 02:17:49;;;;;;;8.15;5.68;;;7.10;68.40;;;;;;5045953;28;20902;-74
2020/12/03 02:20:18;;;;;;;6.68;5.05;;;7.10;68.40;;;;;;5045566;28;20025;-74
2020/12/03 02:22:44;;;;;;;6.07;4.47;;;7.20;68.50;;;;;;5048984;28;20033;-74
2020/12/03 02:25:10;;;;;;;6.25;4.95;;;7.20;68.50;;;;;;5048290;28;20104;-74
2020/12/03 02:27:38;;;;;;;7.63;4.72;;;7.20;68.40;;;;;;5046077;28;20041;-74
2020/12/03 02:30:06;;;;;;;6.50;5.15;;;7.20;68.50;;;;;;5048378;28;20041;-73
2020/12/03 02:32:32;;;;;;;6.15;5.15;;;7.20;68.50;;;;;;5043961;28;20029;-74
2020/12/03 02:34:59;;;;;;;6.93;5.22;;;7.20;68.40;;;;;;5040756;28;20110;-74
2020/12/03 02:37:25;;;;;;;6.22;5.13;;;7.20;68.40;;;;;;5045417;28;20087;-74
2020/12/03 02:39:50;;;;;;;6.30;5.43;;;7.30;68.40;;;;;;5040350;28;20045;-74
2020/12/03 02:42:16;;;;;;;7.15;5.40;;;7.30;68.40;;;;;;5046216;28;20029;-74
2020/12/03 02:44:44;;;;;;;6.43;5.07;;;7.30;68.40;;;;;;5044857;28;20078;-74
2020/12/03 02:47:12;;;;;;;7.75;5.75;;;7.20;68.30;;;;;;5046363;28;20033;-74
2020/12/03 02:49:41;;;;;;;6.43;5.63;;;7.20;68.20;;;;;;5041765;28;20032;-74
2020/12/03 02:52:10;;;;;;;8.48;6.25;;;7.20;68.20;;;;;;5046160;28;20496;-74
2020/12/03 02:54:36;;;;;;;7.80;5.82;;;7.20;68.30;;;;;;5047861;28;20160;-74
2020/12/03 02:57:02;;;;;;;6.50;5.13;;;7.20;68.30;;;;;;5045486;28;20063;-74
2020/12/03 02:59:28;;;;;;;5.03;4.45;;;7.30;68.40;;;;;;5042044;28;20031;-74
2020/12/03 03:01:53;;;;;;;6.30;4.72;;;7.20;68.30;;;;;;5046281;28;20031;-74
2020/12/03 03:04:19;;;;;;;5.93;4.65;;;7.20;68.30;;;;;;5042382;28;20029;-74
2020/12/03 03:06:44;;;;;;;6.28;5.15;;;7.30;68.40;;;;;;5045431;28;20506;-74
2020/12/03 03:09:10;;;;;;;6.10;4.78;;;7.20;68.30;;;;;;5049543;28;20557;-74
2020/12/03 03:11:36;;;;;;;6.15;4.88;;;7.20;68.30;;;;;;5043475;28;20140;-74
2020/12/03 03:14:02;;;;;;;6.10;4.68;;;7.30;68.40;;;;;;5043606;28;20040;-74
2020/12/03 03:16:29;;;;;;;5.03;4.32;;;7.30;68.40;;;;;;5044781;28;20159;-73
2020/12/03 03:18:55;;;;;;;6.90;4.97;;;7.20;68.40;;;;;;5041097;28;20040;-74
2020/12/03 03:21:20;;;;;;;6.35;4.90;;;7.20;68.40;;;;;;5049325;28;20033;-74
2020/12/03 03:23:46;;;;;;;6.28;4.50;;;7.30;68.50;;;;;;5045295;28;20116;-74
2020/12/03 03:26:12;;;;;;;6.03;4.82;;;7.20;68.50;;;;;;5044979;28;20703;-74
2020/12/03 03:28:37;;;;;;;6.63;5.10;;;7.30;68.70;;;;;;5039237;28;20048;-73
2020/12/03 03:31:03;;;;;;;6.35;4.85;;;7.30;68.70;;;;;;5044311;28;20036;-74
2020/12/03 03:33:28;;;;;;;5.43;4.25;;;7.30;68.70;;;;;;5039850;28;20075;-73
2020/12/03 03:35:54;;;;;;;6.05;4.82;;;7.30;68.70;;;;;;5046406;28;20048;-74
2020/12/03 03:38:19;;;;;;;5.35;4.57;;;7.30;68.60;;;;;;5045038;28;20494;-74
2020/12/03 03:40:45;;;;;;;6.95;5.00;;;7.30;68.60;;;;;;5045355;28;20029;-74
2020/12/03 03:43:11;;;;;;;6.57;5.25;;;7.40;68.60;;;;;;5039656;28;20491;-73
2020/12/03 03:45:36;;;;;;;7.20;5.13;;;7.20;68.60;;;;;;5045274;28;20091;-74
2020/12/03 03:48:02;;;;;;;5.82;4.65;;;7.30;68.60;;;;;;5041731;28;20044;-74
2020/12/03 03:50:28;;;;;;;7.13;5.15;;;7.30;68.60;;;;;;5048435;28;20040;-74
2020/12/03 03:52:54;;;;;;;7.43;5.18;;;7.30;68.60;;;;;;5047656;28;20038;-74
2020/12/03 03:55:20;;;;;;;6.50;5.03;;;7.30;68.50;;;;;;5046783;28;20657;-74
2020/12/03 03:57:45;;;;;;;8.18;5.60;;;7.30;68.40;;;;;;5044905;28;20511;-74
2020/12/03 04:00:14;;;;;;;6.85;5.30;;;7.30;68.30;;;;;;5044104;28;20791;-73
2020/12/03 04:02:39;;;;;;;6.93;5.13;;;7.30;68.30;;;;;;5043887;28;20037;-74
2020/12/03 04:05:05;;;;;;;6.45;4.82;;;7.20;68.30;;;;;;5041047;28;20033;-73
2020/12/03 04:07:30;;;;;;;5.75;4.70;;;7.30;68.40;;;;;;5045356;28;20078;-73
2020/12/03 04:09:56;;;;;;;7.18;5.00;;;7.30;68.40;;;;;;5043485;28;20078;-73
2020/12/03 04:12:21;;;;;;;6.22;4.78;;;7.20;68.40;;;;;;5043927;28;20495;-74
2020/12/03 04:14:47;;;;;;;6.00;4.85;;;7.20;68.50;;;;;;5038047;28;20086;-74
2020/12/03 04:17:12;;;;;;;6.82;5.40;;;7.20;68.60;;;;;;5036424;28;20033;-73
2020/12/03 04:19:38;;;;;;;6.72;4.88;;;7.20;68.60;;;;;;5039729;28;20041;-74
2020/12/03 04:22:03;;;;;;;6.75;5.45;;;7.20;68.60;;;;;;5043141;28;20155;-74
2020/12/03 04:24:29;;;;;;;6.45;5.03;;;7.30;68.70;;;;;;5042572;28;20052;-73
2020/12/03 04:26:54;;;;;;;6.35;4.68;;;7.20;68.70;;;;;;5045661;28;20032;-74
2020/12/03 04:29:20;;;;;;;7.35;5.20;;;7.20;68.70;;;;;;5041750;28;20432;-74
2020/12/03 04:31:45;;;;;;;6.82;5.63;;;7.20;68.80;;;;;;5043730;28;20048;-73
2020/12/03 04:34:12;;;;;;;5.05;4.15;;;7.20;68.80;;;;;;5039202;28;20385;-74
2020/12/03 04:36:38;;;;;;;6.72;4.97;;;7.30;68.90;;;;;;5040930;28;20029;-74
2020/12/03 04:39:05;;;;;;;7.20;4.80;;;7.20;68.90;;;;;;5043864;28;20132;-74
2020/12/03 04:41:31;;;;;;;6.35;4.90;;;7.30;68.90;;;;;;5042043;28;20506;-74
2020/12/03 04:44:13;;;;;;;7.80;5.50;;;7.30;68.90;;;;;;5038927;28;20034;-73
2020/12/03 04:46:43;;;;;;;6.68;5.63;;;7.40;69.00;;;;;;5044464;28;20048;-73
2020/12/03 04:49:27;;;;;;;6.85;5.43;;;7.30;68.80;;;;;;5040934;28;20033;-73
2020/12/03 04:52:05;;;;;;;7.03;5.32;;;7.30;68.80;;;;;;5048320;28;20368;-73
2020/12/03 04:54:47;;;;;;;7.18;5.53;;;7.40;68.90;;;;;;5041075;28;20041;-73
2020/12/03 04:57:42;;;;;;;6.03;4.80;;;7.40;69.00;;;;;;5026312;28;20432;-73
2020/12/03 05:00:16;;;;;;;6.05;4.40;;;7.40;69.20;;;;;;5025623;28;20025;-74
2020/12/03 05:02:44;;;;;;;6.25;4.97;;;7.40;69.00;;;;;;5043066;28;20086;-74
2020/12/03 05:05:13;;;;;;;7.38;4.97;;;7.30;68.90;;;;;;5041472;28;20796;-74
2020/12/03 05:07:40;;;;;;;6.75;5.40;;;7.40;68.90;;;;;;5044435;28;20041;-74
2020/12/03 05:10:37;;;;;;;5.80;4.88;;;7.40;68.90;;;;;;5040927;28;20116;-74
2020/12/03 05:13:02;;;;;;;5.88;4.75;;;7.40;69.10;;;;;;5039961;28;20091;-74
2020/12/03 05:15:34;;;;;;;7.35;4.95;;;7.40;68.80;;;;;;5043625;28;20033;-73
2020/12/03 05:19:01;;;;;;;6.60;4.90;;;7.40;68.90;;;;;;5040760;28;20052;-73
2020/12/03 05:21:30;;;;;;;5.65;4.45;;;7.40;69.10;;;;;;4997624;28;20381;-73
2020/12/03 05:23:55;;;;;;;6.18;5.05;;;7.40;68.80;;;;;;5046439;28;20492;-73
2020/12/03 05:26:24;;;;;;;7.07;5.30;;;7.40;68.90;;;;;;5041446;28;20036;-73
2020/12/03 05:28:57;;;;;;;5.78;4.63;;;7.40;69.00;;;;;;5044197;28;20029;-73
2020/12/03 05:31:26;;;;;;;6.32;4.40;;;7.50;69.00;;;;;;5042297;28;20557;-73
2020/12/03 05:33:52;;;;;;;6.10;4.63;;;7.50;69.10;;;;;;5034379;28;20068;-73
2020/12/03 05:36:20;;;;;;;5.78;4.75;;;7.50;69.10;;;;;;5044802;28;20076;-74
2020/12/03 05:38:46;;;;;;;4.95;4.32;;;7.50;69.00;;;;;;5043628;28;20037;-74
2020/12/03 05:41:15;;;;;;;6.70;4.85;;;7.50;69.10;;;;;;5043249;28;20476;-73
2020/12/03 05:43:40;;;;;;;5.97;4.72;;;7.50;69.10;;;;;;5038019;28;20403;-74
2020/12/03 05:46:07;;;;;;;7.03;5.30;;;7.70;69.10;;;;;;5042212;28;20025;-74
2020/12/03 05:48:32;;;;;;;7.20;4.82;;;7.60;69.10;;;;;;5038140;28;20124;-74
2020/12/03 05:50:58;;;;;;;6.28;5.10;;;7.60;69.10;;;;;;5023339;28;20112;-74
2020/12/03 05:53:27;;;;;;;5.75;4.85;;;7.60;69.10;;;;;;5041833;28;20484;-75
2020/12/03 05:56:14;;;;;;;7.30;5.43;;;7.60;69.10;;;;;;5038453;28;20033;-74
2020/12/03 05:58:40;;;;;;;6.38;4.82;;;7.60;69.20;;;;;;5036525;28;20442;-74
2020/12/03 06:01:10;;;;;;;6.47;5.03;;;7.70;69.10;;;;;;5043288;28;20037;-74
2020/12/03 06:04:01;;;;;;;7.13;5.10;;;7.60;69.00;;;;;;5041688;28;20468;-75
2020/12/03 06:07:09;;;;;;;6.57;5.07;;;7.70;69.20;;;;;;5045224;28;20073;-74
2020/12/03 06:09:44;;;;;;;5.85;4.28;;;7.70;69.20;;;;;;5043668;28;20071;-75
2020/12/03 06:12:56;;;;;;;6.03;4.70;;;7.70;69.00;;;;;;5046445;28;20035;-75
2020/12/03 06:15:37;;;;;;;6.55;5.05;;;7.70;69.20;;;;;;5034612;28;20073;-75
2020/12/03 06:18:24;;;;;;;5.57;4.93;;;7.70;69.00;;;;;;5017945;28;20401;-74
2020/12/03 06:21:15;;;;;;;7.15;4.57;;;7.70;69.20;;;;;;5026462;28;20033;-76
2020/12/03 06:24:17;;;;;;;6.20;4.63;;;7.70;69.10;;;;;;5027710;28;20037;-75
2020/12/03 06:26:56;;;;;;;10.40;5.25;;;7.70;69.20;;;;;;5024820;28;20022;-74
2020/12/03 06:29:28;;;;;;;6.30;4.32;;;7.70;69.10;;;;;;5027245;28;20500;-75
2020/12/03 06:32:02;;;;;;;6.38;4.75;;;7.70;69.00;;;;;;5021432;28;20091;-74
2020/12/03 06:34:38;;;;;;;5.78;4.60;;;7.70;69.00;;;;;;5029133;28;20059;-74
2020/12/03 06:37:16;;;;;;;7.10;5.50;;;7.80;69.00;;;;;;5024261;28;20025;-74
2020/12/03 06:39:48;;;;;;;6.88;5.38;;;7.80;69.00;;;;;;5044666;23;20029;-75
2020/12/03 06:42:43;;;;;;;6.60;5.03;;;7.80;69.00;;;;;;5012535;28;20045;-74
2020/12/03 06:45:35;;;;;;;5.80;4.95;;;7.80;69.00;;;;;;5004665;28;20116;-74
2020/12/03 06:48:38;;;;;;;8.23;5.25;;;7.80;69.10;;;;;;4999440;28;20168;-74
2020/12/03 06:51:16;;;;;;;6.25;4.80;;;7.80;69.10;;;;;;5002114;28;20521;-75
2020/12/03 06:54:16;;;;;;;6.30;5.43;;;7.80;68.90;;;;;;5011204;28;20034;-72
2020/12/03 06:57:19;;;;;;;6.93;5.07;;;7.80;69.00;;;;;;5023204;28;20045;-74
2020/12/03 07:00:22;;;;;;;5.05;4.00;;;7.80;69.00;;;;;;5008941;28;20117;-74
2020/12/03 07:03:29;;;;;;;7.55;5.20;;;7.70;69.00;;;;;;4995032;28;20057;-75
2020/12/03 07:06:29;;;;;;;7.38;5.32;;;7.80;69.00;;;;;;5006002;28;20116;-75
2020/12/03 07:09:14;;;;;;;6.73;5.40;;;7.70;69.00;;;;;;5036749;23;20053;-73
2020/12/03 07:11:49;;;;;;;7.20;4.82;;;7.70;69.00;;;;;;4998414;28;20081;-72
2020/12/03 07:17:20;;;;;;;6.97;4.97;;;7.70;68.90;;;;;;5020437;28;20057;-72
2020/12/03 07:20:31;;;;;;;6.85;4.88;;;7.70;68.90;;;;;;5021681;28;20137;-73
2020/12/03 07:23:08;;;;;;;5.78;4.53;;;7.70;69.10;;;;;;4995508;28;20704;-72
2020/12/03 07:25:34;;;;;;;7.80;5.63;;;7.70;69.00;;;;;;4998367;28;20080;-73
2020/12/03 07:28:08;;;;;;;7.93;5.65;;;7.70;69.00;;;;;;5000375;28;20030;-72
2020/12/03 07:30:37;;;;;;;5.25;4.43;;;7.70;69.10;;;;;;4997478;28;20046;-75
2020/12/03 07:33:29;;;;;;;7.30;4.70;;;7.70;69.10;;;;;;4995175;28;20051;-71
2020/12/03 07:36:20;;;;;;;6.00;4.80;;;7.70;69.40;;;;;;4993837;28;20026;-73
2020/12/03 07:39:14;;;;;;;5.78;4.72;;;7.70;69.40;;;;;;4994607;28;20037;-72
2020/12/03 07:41:46;;;;;;;6.25;5.07;;;7.70;69.40;;;;;;4995157;28;20096;-72
2020/12/03 07:44:27;;;;;;;6.82;5.00;;;7.70;69.20;;;;;;4982379;28;20038;-72
2020/12/03 07:47:13;;;;;;;5.68;4.75;;;7.70;69.20;;;;;;4993654;28;20026;-72
2020/12/03 07:49:44;;;;;;;6.90;5.13;;;7.70;69.10;;;;;;4994013;28;20042;-72
2020/12/03 07:52:29;;;;;;;6.15;4.90;;;7.80;69.20;;;;;;4998864;28;20087;-78
2020/12/03 07:55:20;;;;;;;6.47;4.25;;;7.70;69.30;;;;;;4996650;28;20038;-72
2020/12/03 07:57:47;;;;;;;7.13;4.90;;;7.70;69.30;;;;;;4998528;28;20041;-74
2020/12/03 08:00:44;;;;;;;7.43;5.07;;;7.70;69.10;;;;;;4996222;28;20381;-72
2020/12/03 08:03:48;;;;;;;5.65;4.50;;;7.70;69.20;;;;;;4992027;28;20034;-72
2020/12/03 08:06:17;;;;;;;5.82;4.60;;;7.70;69.30;;;;;;4997753;28;20046;-72
2020/12/03 08:08:45;;;;;;;7.18;5.32;;;7.80;69.20;;;;;;4997734;28;20097;-72
2020/12/03 08:11:36;;;;;;;6.80;4.80;;;7.80;69.20;;;;;;4996611;28;20493;-72
2020/12/03 08:14:02;;;;;;;5.47;4.47;;;7.70;69.50;;;;;;4987073;28;20567;-72
2020/12/03 08:16:48;;;;;;;6.72;5.13;;;7.80;69.30;;;;;;4994033;28;20317;-72
2020/12/03 08:19:35;;;;;;;6.75;5.07;;;7.80;69.50;;;;;;4991797;28;20034;-72
2020/12/03 08:22:02;;;;;;;5.30;4.40;;;7.80;69.50;;;;;;4993897;28;20515;-72
2020/12/03 08:24:33;;;;;;;8.32;5.45;;;7.80;69.20;;;;;;4992993;28;20038;-72
2020/12/03 08:26:59;;;;;;;;;;;7.80;69.20;;;;;;4997840;28;20112;-72
2020/12/03 08:29:36;;;;;;;7.68;5.25;;;7.80;69.50;;;;;;4993560;28;20353;-72
2020/12/03 08:32:02;;;;;;;6.03;4.80;;;7.80;69.10;;;;;;4987442;28;20030;-73
2020/12/03 08:34:32;;;;;;;5.95;4.22;;;7.90;69.10;;;;;;4994357;28;20144;-72
2020/12/03 08:36:58;;;;;;;7.63;5.35;;;7.80;69.20;;;;;;4996273;28;20064;-73
2020/12/03 08:39:25;;;;;;;6.13;4.70;;;7.80;69.20;;;;;;4993167;28;20426;-73
2020/12/03 08:41:52;;;;;;;6.65;5.03;;;7.80;69.20;;;;;;4999044;28;20030;-71
2020/12/03 08:44:18;;;;;;;8.32;5.45;;;7.80;69.20;;;;;;4996338;28;20034;-69
2020/12/03 08:46:44;;;;;;;6.32;5.22;;;7.80;69.20;;;;;;4994410;28;20041;-72
2020/12/03 08:49:20;;;;;;;6.88;5.20;;;7.80;69.30;;;;;;4992031;28;20033;-72
2020/12/03 08:51:55;;;;;;;6.75;5.00;;;7.80;69.30;;;;;;4998952;28;20048;-75
2020/12/03 08:54:29;;;;;;;8.55;5.07;;;7.80;69.40;;;;;;4996318;28;20034;-72
2020/12/03 08:57:02;;;;;;;5.32;4.32;;;7.80;69.40;;;;;;4994479;28;20056;-72
2020/12/03 08:59:34;;;;;;;6.78;5.00;;;7.90;69.50;;;;;;4993395;28;20043;-72
2020/12/03 09:02:12;;;;;;;6.03;4.53;;;7.90;69.50;;;;;;4995828;28;20026;-73
2020/12/03 09:04:49;;;;;;;6.63;4.28;;;7.90;69.60;;;;;;4992810;28;20509;-73
2020/12/03 09:07:17;;;;;;;5.47;4.07;;;7.90;69.70;;;;;;4995652;28;20029;-72
2020/12/03 09:09:45;;;;;;;6.88;5.25;;;7.90;69.60;;;;;;4996308;28;20125;-72
2020/12/03 09:12:13;;;;;;;5.50;4.85;;;8.00;69.70;;;;;;4993645;28;20030;-73
2020/12/03 09:14:41;;;;;;;6.85;5.13;;;8.00;69.70;;;;;;4993841;28;20034;-72
2020/12/03 09:17:14;;;;;;;7.38;5.20;;;8.00;69.80;;;;;;4997456;28;20092;-71
2020/12/03 09:19:40;;;;;;;6.25;4.55;;;8.00;69.80;;;;;;4994345;28;20453;-71
2020/12/03 09:22:07;;;;;;;6.40;4.85;;;8.10;69.80;;;;;;4998193;28;20400;-72
2020/12/03 09:24:34;;;;;;;7.97;5.43;;;8.10;69.90;;;;;;4995916;28;20032;-76
2020/12/03 09:27:03;;;;;;;5.80;4.75;;;8.30;70.00;;;;;;4994840;28;20033;-75
2020/12/03 09:29:29;;;;;;;5.47;4.38;;;8.20;70.00;;;;;;4994911;28;20030;-75
2020/12/03 09:31:59;;;;;;;6.55;5.53;;;8.20;70.00;;;;;;4997077;28;20072;-76
2020/12/03 09:34:29;;;;;;;6.97;5.10;;;8.30;70.00;;;;;;4993640;28;20077;-75
2020/12/03 09:36:57;;;;;;;6.53;5.32;;;8.30;70.00;;;;;;5001198;28;20033;-75
2020/12/03 09:39:23;;;;;;;7.68;5.40;;;8.30;70.00;;;;;;4997608;28;20037;-77
2020/12/03 09:41:49;;;;;;;7.38;5.22;;;8.40;70.00;;;;;;5000652;28;20026;-76
2020/12/03 09:44:16;;;;;;;6.10;4.55;;;8.40;70.00;;;;;;4997165;28;20100;-76
2020/12/03 09:46:45;;;;;;;6.40;5.18;;;8.40;70.10;;;;;;5000151;28;20030;-75
2020/12/03 09:49:15;;;;;;;6.32;5.22;;;8.50;70.10;;;;;;4997727;28;20034;-77
2020/12/03 09:51:42;;;;;;;6.97;5.53;;;8.50;70.10;;;;;;4998074;28;20425;-76
2020/12/03 09:54:09;;;;;;;6.47;4.65;;;8.60;70.10;;;;;;4999349;28;20523;-75
2020/12/03 09:56:38;;;;;;;6.10;4.38;;;8.60;70.00;;;;;;4997175;28;20030;-75
2020/12/03 09:59:06;;;;;;;7.38;5.50;;;8.70;70.00;;;;;;4999382;28;20022;-75
2020/12/03 10:01:59;;;;;;;6.47;5.35;;;8.70;69.90;;;;;;4998120;28;20022;-77
2020/12/03 10:04:45;;;;;;;6.28;4.82;;;8.80;69.90;;;;;;4979217;28;20073;-76
2020/12/03 10:07:43;;;;;;;6.60;5.43;;;8.80;69.90;;;;;;4999091;28;20064;-75
2020/12/03 10:10:46;;;;;;;6.53;5.10;;;8.80;69.60;;;;;;4997962;28;20370;-75
2020/12/03 10:13:46;;;;;;;6.97;5.03;;;8.90;69.60;;;;;;4999612;28;20034;-75
2020/12/03 10:16:24;;;;;;;7.03;4.40;;;8.90;69.60;;;;;;4995084;28;20045;-75
2020/12/03 10:18:55;;;;;;;6.03;4.82;;;8.90;69.60;;;;;;4997371;28;20030;-73
2020/12/03 10:21:28;;;;;;;5.50;4.57;;;8.90;69.60;;;;;;4995126;28;20033;-75
2020/12/03 10:24:12;;;;;;;6.38;4.78;;;8.90;69.60;;;;;;4995131;28;20030;-75
2020/12/03 10:26:38;;;;;;;4.93;4.18;;;9.00;69.60;;;;;;4999509;28;20042;-75
2020/12/03 10:29:30;;;;;;;6.50;5.07;;;9.00;69.60;;;;;;5001493;28;20022;-75
2020/12/03 10:31:58;;;;;;;6.40;4.70;;;9.00;69.60;;;;;;4995952;28;20077;-77
2020/12/03 10:34:25;;;;;;;6.78;4.80;;;9.00;69.60;;;;;;4995570;28;20045;-75
2020/12/03 10:36:56;;;;;;;6.38;4.93;;;9.10;69.70;;;;;;5000122;28;20740;-75
2020/12/03 10:39:26;;;;;;;;;;;9.10;69.60;;;;;;4999934;28;20101;-75
2020/12/03 10:41:53;;;;;;;6.40;4.43;;;9.30;69.70;;;;;;4997836;28;19966;-75
2020/12/03 10:44:23;;;;;;;6.38;4.35;;;9.10;69.30;;;;;;4996051;28;20029;-79
2020/12/03 10:46:53;;;;;;;4.65;4.03;;;9.20;69.40;;;;;;5008022;28;20459;-74
2020/12/03 10:49:21;;;;;;;5.72;4.20;;;9.20;69.50;;;;;;4996355;28;20034;-76
2020/12/03 10:51:47;;;;;;;5.25;4.35;;;9.20;69.70;;;;;;4997428;28;20030;-78
2020/12/03 10:54:19;;;;;;;6.43;4.65;;;9.30;69.80;;;;;;4999187;28;20037;-77
2020/12/03 10:56:51;;;;;;;6.40;4.75;;;9.30;69.70;;;;;;4997421;28;20398;-77
2020/12/03 11:01:51;;;;;;;6.22;4.47;;;9.40;69.70;;;;;;4996462;28;20049;-78
2020/12/03 11:04:17;;;;;;;5.50;4.50;;;9.40;69.50;;;;;;5000425;28;20034;-75
2020/12/03 11:06:42;;;;;;;4.45;3.42;;;9.40;69.40;;;;;;5006783;28;20511;-75
2020/12/03 11:09:19;;;;;;;5.28;4.45;;;9.40;69.30;;;;;;5005840;28;20096;-78
2020/12/03 11:11:49;;;;;;;4.85;4.35;;;9.50;69.10;;;;;;5002213;28;20121;-78
2020/12/03 11:14:16;;;;;;;5.88;4.25;;;9.50;69.10;;;;;;5005740;28;20168;-76
2020/12/03 11:17:10;;;;;;;6.22;4.95;;;9.50;69.00;;;;;;5005629;28;20661;-76
2020/12/03 11:19:37;;;;;;;5.93;4.50;;;9.50;68.90;;;;;;4981622;28;20038;-74
2020/12/03 11:22:26;;;;;;;5.45;4.50;;;9.50;68.80;;;;;;5005467;28;20087;-74
2020/12/03 11:25:00;;;;;;;5.75;4.32;;;9.50;68.80;;;;;;5001124;28;20029;-79
2020/12/03 11:30:56;;;;;;;4.85;4.07;;;9.40;68.90;;;;;;5008075;28;20052;-72
2020/12/03 11:33:26;;;;;;;5.68;4.47;;;9.40;68.90;;;;;;4999545;28;20045;-72
2020/12/03 11:36:01;;;;;;;5.22;4.45;;;9.60;69.10;;;;;;4998689;28;20411;-72
2020/12/03 11:38:31;;;;;;;5.13;4.50;;;9.50;69.00;;;;;;5002133;28;20026;-70
2020/12/03 11:40:58;;;;;;;6.33;4.23;;;9.50;69.00;;;;;;5001433;28;20386;-71
2020/12/03 11:48:57;;;;;;;4.40;3.58;;;9.70;69.10;;;;;;4996669;28;20104;-75
2020/12/03 11:51:35;;;;;;;5.03;4.00;;;9.50;69.00;;;;;;5003427;28;20026;-71
2020/12/03 11:54:06;;;;;;;5.28;4.05;;;9.60;68.90;;;;;;5001365;28;20033;-72
2020/12/03 11:56:33;;;;;;;5.03;3.58;;;9.50;69.00;;;;;;5001372;28;20566;-72
2020/12/03 11:59:16;;;;;;;4.90;3.80;;;9.50;68.90;;;;;;5002327;28;20022;-70
2020/12/03 12:01:57;;;;;;;4.72;3.58;;;9.60;68.80;;;;;;5002244;28;20030;-73
2020/12/03 12:04:31;;;;;;;4.75;3.88;;;9.60;68.80;;;;;;5000213;28;20033;-71
2020/12/03 12:12:09;;;;;;;5.43;4.32;;;9.60;68.70;;;;;;4997312;28;20030;-72
2020/12/03 12:14:34;;;;;;;4.68;3.92;;;9.70;68.80;;;;;;4995516;28;20030;-73
2020/12/03 12:17:00;;;;;;;5.15;3.78;;;9.50;68.70;;;;;;4999679;28;20029;-73
2020/12/03 12:19:27;;;;;;;5.70;4.28;;;9.60;68.70;;;;;;4995110;28;20458;-72
2020/12/03 12:21:55;;;;;;;4.22;3.67;;;9.60;68.80;;;;;;4993466;28;20457;-73
2020/12/03 12:24:20;;;;;;;5.35;4.07;;;9.60;68.70;;;;;;4977064;28;20030;-73
2020/12/03 12:26:46;;;;;;;5.00;4.22;;;9.60;68.70;;;;;;4994144;28;20508;-72
2020/12/03 12:29:11;;;;;;;3.78;3.38;;;9.60;68.70;;;;;;4998874;28;20024;-71
2020/12/03 12:31:38;;;;;;;4.28;3.58;;;9.60;68.70;;;;;;4997069;28;20033;-69
2020/12/03 12:34:04;;;;;;;5.18;3.88;;;9.50;68.60;;;;;;4992673;28;20471;-73
2020/12/03 12:36:29;;;;;;;4.18;3.55;;;9.60;68.70;;;;;;4995359;28;20121;-72
2020/12/03 12:38:55;;;;;;;5.55;4.25;;;9.60;68.60;;;;;;4996508;28;20030;-73
2020/12/03 12:41:21;;;;;;;4.55;3.53;;;9.60;68.50;;;;;;4994053;28;20519;-73
2020/12/03 12:43:46;;;;;;;4.32;3.92;;;9.70;68.60;;;;;;4993026;28;20033;-73
2020/12/03 12:46:12;;;;;;;5.25;4.22;;;9.50;68.50;;;;;;4997620;28;20542;-73
2020/12/03 12:48:37;;;;;;;6.07;4.07;;;9.50;68.50;;;;;;4991836;28;20038;-73
2020/12/03 12:51:03;;;;;;;5.57;4.05;;;9.60;68.50;;;;;;4996939;28;20034;-72
2020/12/03 12:53:28;;;;;;;5.40;4.05;;;9.50;68.50;;;;;;4997541;28;20384;-73
2020/12/03 12:55:54;;;;;;;6.50;4.38;;;9.60;68.50;;;;;;4996836;28;20496;-73
2020/12/03 12:58:19;;;;;;;5.70;4.35;;;9.50;68.50;;;;;;4995286;28;20045;-73
2020/12/03 13:00:45;;;;;;;6.97;4.15;;;9.40;68.50;;;;;;4996420;28;20082;-73
2020/12/03 13:03:10;;;;;;;5.00;3.97;;;9.60;68.60;;;;;;4994670;28;20481;-72
2020/12/03 13:05:36;;;;;;;4.05;3.30;;;9.50;68.50;;;;;;4996503;28;20035;-73
2020/12/03 13:08:02;;;;;;;5.65;4.68;;;9.50;68.60;;;;;;4996482;28;20080;-74
2020/12/03 13:10:27;;;;;;;4.70;3.80;;;9.40;68.50;;;;;;4999844;28;20030;-72
2020/12/03 13:12:54;;;;;;;4.38;3.60;;;9.50;68.50;;;;;;5004771;28;20030;-73
2020/12/03 13:15:20;;;;;;;5.72;3.92;;;9.50;68.60;;;;;;5002513;28;20049;-74
2020/12/03 13:17:45;;;;;;;4.38;3.63;;;9.50;68.60;;;;;;4995871;28;20048;-74
2020/12/03 13:20:11;;;;;;;5.18;3.85;;;9.50;68.60;;;;;;4995192;28;20030;-74
2020/12/03 13:22:36;;;;;;;3.28;2.90;;;9.40;68.40;;;;;;5001632;28;20436;-73
2020/12/03 13:25:02;;;;;;;4.18;3.30;;;9.40;68.40;;;;;;5007252;28;20109;-73
2020/12/03 13:27:27;;;;;;;5.25;4.05;;;9.50;68.30;;;;;;5001514;28;20057;-74
2020/12/03 13:29:53;;;;;;;5.57;3.88;;;9.60;68.40;;;;;;5001719;28;20041;-73
2020/12/03 13:32:18;;;;;;;4.25;3.38;;;9.60;68.30;;;;;;5002110;28;20038;-74
2020/12/03 13:34:44;;;;;;;5.78;3.95;;;9.40;68.30;;;;;;4999724;28;20038;-74
2020/12/03 13:37:09;;;;;;;5.90;3.90;;;9.40;68.30;;;;;;5002059;28;20493;-73
2020/12/03 13:39:35;;;;;;;4.60;3.70;;;9.40;68.20;;;;;;5001380;28;20042;-73